createdAt,value
2018-08-10T00:04:51.268Z,21.60
2018-08-10T00:09:54.372Z,21.50
2018-08-10T00:14:57.498Z,21.40
2018-08-10T00:20:00.611Z,21.40
2018-08-10T00:25:04.693Z,21.30
2018-08-10T00:30:10.970Z,21.20
2018-08-10T00:35:14.065Z,21.10
2018-08-10T00:40:21.072Z,21.00
2018-08-10T00:45:24.170Z,20.90
2018-08-10T00:50:27.253Z,20.80
2018-08-10T00:55:30.354Z,20.80
2018-08-10T01:00:33.508Z,20.70
2018-08-10T01:05:36.587Z,20.60
2018-08-10T01:10:39.687Z,20.60
2018-08-10T01:15:42.759Z,20.50
2018-08-10T01:20:45.928Z,20.50
2018-08-10T01:25:49.023Z,20.50
2018-08-10T01:30:52.101Z,20.40
2018-08-10T01:35:55.181Z,20.40
2018-08-10T01:40:58.266Z,20.40
2018-08-10T01:46:01.349Z,20.30
2018-08-10T01:51:04.437Z,20.20
2018-08-10T01:56:07.529Z,20.20
2018-08-10T02:01:10.633Z,20.00
2018-08-10T02:06:13.709Z,19.90
2018-08-10T02:11:16.808Z,19.80
2018-08-10T02:16:26.286Z,19.80
2018-08-10T02:21:29.397Z,19.70
2018-08-10T02:26:32.467Z,19.60
2018-08-10T02:31:35.573Z,19.60
2018-08-10T02:36:38.785Z,19.50
2018-08-10T02:41:41.880Z,19.50
2018-08-10T02:46:44.978Z,19.40
2018-08-10T02:51:48.052Z,19.40
2018-08-10T02:56:51.172Z,19.40
2018-08-10T03:01:54.239Z,19.30
2018-08-10T03:06:57.314Z,19.30
2018-08-10T03:12:00.400Z,19.20
2018-08-10T03:17:03.485Z,19.10
2018-08-10T03:22:06.938Z,19.00
2018-08-10T03:27:09.928Z,19.00
2018-08-10T03:32:13.023Z,18.90
2018-08-10T03:37:16.085Z,18.80
2018-08-10T03:42:19.196Z,18.80
2018-08-10T03:47:22.276Z,18.80
2018-08-10T03:52:25.417Z,18.70
2018-08-10T03:57:28.516Z,18.70
2018-08-10T04:02:31.596Z,18.60
2018-08-10T04:07:34.692Z,18.50
2018-08-10T04:12:38.086Z,18.50
2018-08-10T04:17:41.319Z,18.40
2018-08-10T04:22:44.406Z,18.40
2018-08-10T04:27:47.488Z,18.40
2018-08-10T04:32:50.561Z,18.40
2018-08-10T04:37:53.678Z,18.30
2018-08-10T04:42:56.753Z,18.30
2018-08-10T04:48:02.217Z,18.20
2018-08-10T04:53:05.266Z,18.20
2018-08-10T04:58:08.389Z,18.20
2018-08-10T05:03:11.462Z,18.10
2018-08-10T05:08:14.556Z,18.10
2018-08-10T05:13:17.641Z,18.20
2018-08-10T05:18:20.735Z,18.20
2018-08-10T05:23:23.820Z,18.20
2018-08-10T05:28:26.931Z,18.20
2018-08-10T05:33:30.231Z,18.20
2018-08-10T05:38:33.350Z,18.20
2018-08-10T05:43:36.420Z,18.30
2018-08-10T05:48:40.569Z,18.30
2018-08-10T05:53:43.669Z,18.40
2018-08-10T05:58:46.747Z,18.40
2018-08-10T06:03:49.919Z,18.50
2018-08-10T06:08:52.933Z,18.60
2018-08-10T06:13:56.100Z,18.70
2018-08-10T06:18:59.164Z,18.80
2018-08-10T06:24:02.378Z,18.80
2018-08-10T06:29:05.544Z,19.00
2018-08-10T06:34:08.631Z,19.00
2018-08-10T06:39:11.893Z,19.20
2018-08-10T06:44:14.972Z,19.40
2018-08-10T06:49:18.049Z,19.50
2018-08-10T06:54:21.131Z,19.60
2018-08-10T06:59:24.278Z,19.80
2018-08-10T07:04:27.364Z,19.80
2018-08-10T07:09:30.440Z,19.90
2018-08-10T07:14:33.575Z,19.90
2018-08-10T07:19:36.687Z,19.90
2018-08-10T07:24:39.765Z,20.00
2018-08-10T07:29:42.855Z,20.00
2018-08-10T07:34:46.004Z,20.10
2018-08-10T07:39:49.127Z,20.10
2018-08-10T07:44:52.252Z,20.20
2018-08-10T07:49:55.441Z,20.30
2018-08-10T07:54:58.596Z,20.30
2018-08-10T08:00:01.684Z,20.40
2018-08-10T08:05:04.784Z,20.50
2018-08-10T08:10:07.909Z,20.50
2018-08-10T08:15:11.040Z,20.70
2018-08-10T08:20:14.133Z,20.70
2018-08-10T08:25:17.217Z,20.90
2018-08-10T08:30:20.328Z,21.00
2018-08-10T08:35:23.446Z,21.10
2018-08-10T08:40:26.680Z,21.30
2018-08-10T08:45:35.540Z,21.50
2018-08-10T08:50:40.650Z,21.70
2018-08-10T08:55:44.483Z,21.80
2018-08-10T09:00:47.605Z,21.90
2018-08-10T09:05:50.754Z,21.90
2018-08-10T09:10:55.129Z,22.00
2018-08-10T09:15:58.240Z,22.20
2018-08-10T09:21:01.344Z,22.30
2018-08-10T09:26:04.482Z,22.50
2018-08-10T09:31:07.594Z,22.80
2018-08-10T09:36:10.726Z,22.90
2018-08-10T09:41:13.819Z,23.10
2018-08-10T09:46:16.916Z,23.20
2018-08-10T09:51:20.084Z,23.30
2018-08-10T09:56:23.177Z,23.40
2018-08-10T10:01:26.271Z,23.50
2018-08-10T10:06:29.389Z,23.70
2018-08-10T10:11:32.502Z,23.80
2018-08-10T10:16:35.632Z,24.00
2018-08-10T10:21:38.736Z,24.20
2018-08-10T10:26:41.816Z,24.30
2018-08-10T10:31:44.959Z,24.30
2018-08-10T10:36:48.042Z,24.50
2018-08-10T10:41:51.149Z,24.60
2018-08-10T10:46:54.242Z,24.70
2018-08-10T10:51:57.351Z,24.80
2018-08-10T10:57:00.767Z,25.00
2018-08-10T11:02:03.814Z,25.10
2018-08-10T11:07:06.961Z,25.20
2018-08-10T11:12:21.861Z,25.40
2018-08-10T11:17:24.918Z,25.40
2018-08-10T11:22:28.030Z,25.40
2018-08-10T11:27:31.117Z,25.30
2018-08-10T11:38:01.489Z,25.30
2018-08-10T11:43:04.585Z,25.40
2018-08-10T11:48:07.676Z,25.40
2018-08-10T11:53:10.793Z,25.40
2018-08-10T11:58:13.873Z,25.40
2018-08-10T12:03:17.000Z,25.40
2018-08-10T12:08:20.075Z,25.40
2018-08-10T12:13:56.126Z,25.50
2018-08-10T12:18:59.276Z,25.70
2018-08-10T12:24:02.282Z,25.90
2018-08-10T12:29:05.424Z,26.00
2018-08-10T12:34:08.516Z,26.10
2018-08-10T12:39:13.434Z,26.00
2018-08-10T12:44:16.513Z,25.90
2018-08-10T12:49:19.704Z,25.70
2018-08-10T12:54:22.850Z,25.70
2018-08-10T12:59:25.917Z,25.60
2018-08-10T13:04:29.082Z,25.70
2018-08-10T13:09:32.189Z,25.80
2018-08-10T13:14:35.393Z,25.90
2018-08-10T13:19:38.500Z,26.00
2018-08-10T13:24:41.606Z,25.90
2018-08-10T13:29:45.126Z,26.00
2018-08-10T13:34:48.234Z,26.00
2018-08-10T13:39:51.372Z,26.00
2018-08-10T13:44:54.471Z,26.00
2018-08-10T13:49:57.665Z,26.10
2018-08-10T13:55:00.771Z,26.10
2018-08-10T14:00:04.915Z,26.20
2018-08-10T14:05:08.015Z,26.20
2018-08-10T14:10:11.969Z,26.20
2018-08-10T14:15:15.106Z,26.10
2018-08-10T14:20:18.205Z,26.10
2018-08-10T14:25:21.318Z,26.20
2018-08-10T14:30:24.402Z,26.30
2018-08-10T14:35:27.604Z,26.50
2018-08-10T14:40:30.759Z,26.70
2018-08-10T14:45:33.852Z,26.80
2018-08-10T14:50:36.944Z,26.90
2018-08-10T14:55:40.085Z,26.90
2018-08-10T15:00:43.287Z,26.90
2018-08-10T15:05:46.260Z,27.00
2018-08-10T15:10:49.395Z,27.00
2018-08-10T15:15:52.484Z,27.10
2018-08-10T15:20:55.596Z,27.30
2018-08-10T15:25:58.822Z,27.40
2018-08-10T15:31:01.929Z,27.40
2018-08-10T15:36:05.370Z,27.50
2018-08-10T15:41:08.502Z,27.60
2018-08-10T15:46:11.580Z,27.60
2018-08-10T15:51:14.721Z,27.70
2018-08-10T15:56:17.849Z,27.70
2018-08-10T16:01:20.917Z,27.80
2018-08-10T16:06:24.036Z,27.90
2018-08-10T16:11:27.128Z,28.00
2018-08-10T16:16:30.256Z,28.00
2018-08-10T16:21:33.493Z,28.00
2018-08-10T16:26:36.601Z,27.90
2018-08-10T16:31:39.701Z,27.90
2018-08-10T16:36:42.816Z,27.90
2018-08-10T16:41:46.565Z,27.80
2018-08-10T16:46:49.656Z,27.80
2018-08-10T16:51:52.749Z,27.70
2018-08-10T16:56:55.848Z,27.60
2018-08-10T17:01:58.948Z,27.50
2018-08-10T17:07:02.034Z,27.40
2018-08-10T17:12:05.276Z,27.40
2018-08-10T17:17:08.590Z,27.30
2018-08-10T17:22:11.668Z,27.10
2018-08-10T17:27:14.757Z,27.00
2018-08-10T17:32:17.861Z,26.80
2018-08-10T17:37:20.935Z,26.60
2018-08-10T17:42:24.022Z,26.50
2018-08-10T17:47:27.135Z,26.40
2018-08-10T17:52:30.233Z,26.20
2018-08-10T17:57:33.339Z,26.20
2018-08-10T18:02:36.454Z,26.10
2018-08-10T18:07:39.718Z,26.00
2018-08-10T18:12:43.607Z,25.80
2018-08-10T18:17:47.165Z,25.80
2018-08-10T18:22:51.357Z,25.70
2018-08-10T18:27:54.448Z,25.60
2018-08-10T18:32:57.557Z,25.50
2018-08-10T18:38:00.658Z,25.40
2018-08-10T18:43:03.756Z,25.30
2018-08-10T18:48:06.860Z,25.20
2018-08-10T18:53:09.976Z,25.10
2018-08-10T18:58:13.094Z,25.00
2018-08-10T19:03:16.206Z,24.90
2018-08-10T19:08:19.294Z,24.80
2018-08-10T19:13:22.381Z,24.70
2018-08-10T19:18:25.473Z,24.50
2018-08-10T19:23:28.597Z,24.40
2018-08-10T19:28:31.694Z,24.30
2018-08-10T19:33:34.837Z,24.10
2018-08-10T19:38:37.947Z,24.00
2018-08-10T19:43:41.062Z,23.90
2018-08-10T19:48:44.180Z,23.80
2018-08-10T19:53:47.283Z,23.80
2018-08-10T19:58:50.649Z,23.70
2018-08-10T20:03:53.799Z,23.60
2018-08-10T20:08:56.902Z,23.50
2018-08-10T20:13:59.998Z,23.40
2018-08-10T20:19:03.083Z,23.40
2018-08-10T20:24:06.184Z,23.30
2018-08-10T20:29:09.295Z,23.20
2018-08-10T20:34:12.394Z,23.00
2018-08-10T20:39:15.516Z,23.00
2018-08-10T20:44:18.637Z,22.80
2018-08-10T20:49:21.771Z,22.70
2018-08-10T20:54:25.037Z,22.60
2018-08-10T20:59:28.146Z,22.40
2018-08-10T21:04:31.335Z,22.30
2018-08-10T21:09:34.341Z,22.20
2018-08-10T21:14:38.361Z,22.10
2018-08-10T21:19:41.450Z,22.00
2018-08-10T21:24:44.543Z,22.00
2018-08-10T21:29:47.645Z,21.90
2018-08-10T21:34:50.742Z,21.80
2018-08-10T21:39:53.833Z,21.70
2018-08-10T21:44:56.950Z,21.70
2018-08-10T21:50:00.055Z,21.50
2018-08-10T21:55:03.188Z,21.50
2018-08-10T22:00:10.573Z,21.40
2018-08-10T22:05:13.694Z,21.30
2018-08-10T22:10:16.780Z,21.20
2018-08-10T22:15:26.313Z,21.10
2018-08-10T22:20:29.426Z,21.10
2018-08-10T22:25:32.528Z,20.90
2018-08-10T22:30:36.057Z,20.80
2018-08-10T22:35:39.540Z,20.70
2018-08-10T22:40:42.949Z,20.60
2018-08-10T22:45:46.060Z,20.60
2018-08-10T22:50:49.256Z,20.50
2018-08-10T22:55:52.345Z,20.40
2018-08-10T23:00:55.431Z,20.40
2018-08-10T23:05:58.560Z,20.30
2018-08-10T23:11:01.666Z,20.20
2018-08-10T23:16:04.830Z,20.20
2018-08-10T23:21:07.920Z,20.10
2018-08-10T23:26:11.412Z,20.00
2018-08-10T23:31:14.508Z,20.00
2018-08-10T23:36:17.612Z,19.90
2018-08-10T23:41:20.702Z,19.80
2018-08-10T23:46:23.784Z,19.80
2018-08-10T23:51:26.909Z,19.80
2018-08-10T23:56:29.997Z,19.70
